sensor_id;sensor_type;location;lat;lon;timestamp;pressure;altitude;pressure_sealevel;temperature;humidity
46223;BME280;31943;51.410;7.564;2023-08-24T00:01:32;100528.09;;;19.46;62.82
46223;BME280;31943;51.410;7.564;2023-08-24T00:03:58;100530.75;;;19.44;62.79
46223;BME280;31943;51.410;7.564;2023-08-24T00:06:24;100531.66;;;19.45;62.72
46223;BME280;31943;51.410;7.564;2023-08-24T00:08:50;100529.03;;;19.43;63.15
46223;BME280;31943;51.410;7.564;2023-08-24T00:11:17;100525.56;;;19.41;63.03
46223;BME280;31943;51.410;7.564;2023-08-24T00:13:43;100523.84;;;19.39;62.82
46223;BME280;31943;51.410;7.564;2023-08-24T00:16:09;100514.16;;;19.38;63.12
46223;BME280;31943;51.410;7.564;2023-08-24T00:18:36;100513.34;;;19.34;62.75
46223;BME280;31943;51.410;7.564;2023-08-24T00:21:01;100516.97;;;19.30;63.12
46223;BME280;31943;51.410;7.564;2023-08-24T00:23:27;100517.91;;;19.27;62.93
46223;BME280;31943;51.410;7.564;2023-08-24T00:25:53;100507.38;;;19.24;63.18
46223;BME280;31943;51.410;7.564;2023-08-24T00:28:18;100512.69;;;19.23;63.25
46223;BME280;31943;51.410;7.564;2023-08-24T00:30:44;100506.56;;;19.21;63.00
46223;BME280;31943;51.410;7.564;2023-08-24T00:33:10;100511.94;;;19.17;63.18
46223;BME280;31943;51.410;7.564;2023-08-24T00:35:37;100506.66;;;19.17;63.29
46223;BME280;31943;51.410;7.564;2023-08-24T00:38:03;100498.75;;;19.16;63.02
46223;BME280;31943;51.410;7.564;2023-08-24T00:40:28;100510.31;;;19.12;63.15
46223;BME280;31943;51.410;7.564;2023-08-24T00:42:54;100506.81;;;19.10;62.88
46223;BME280;31943;51.410;7.564;2023-08-24T00:45:20;100503.34;;;19.08;62.96
46223;BME280;31943;51.410;7.564;2023-08-24T00:47:47;100510.41;;;19.07;63.10
46223;BME280;31943;51.410;7.564;2023-08-24T00:50:14;100510.47;;;19.03;63.07
46223;BME280;31943;51.410;7.564;2023-08-24T00:52:44;100504.34;;;19.02;62.97
46223;BME280;31943;51.410;7.564;2023-08-24T00:55:12;100504.38;;;18.99;62.91
46223;BME280;31943;51.410;7.564;2023-08-24T00:57:40;100498.22;;;18.99;63.45
46223;BME280;31943;51.410;7.564;2023-08-24T01:00:07;100491.25;;;18.96;63.48
46223;BME280;31943;51.410;7.564;2023-08-24T01:02:34;100489.47;;;18.95;63.40
46223;BME280;31943;51.410;7.564;2023-08-24T01:05:03;100486.00;;;18.93;63.28
46223;BME280;31943;51.410;7.564;2023-08-24T01:07:30;100483.38;;;18.91;63.02
46223;BME280;31943;51.410;7.564;2023-08-24T01:09:57;100486.09;;;18.90;62.96
46223;BME280;31943;51.410;7.564;2023-08-24T01:12:28;100483.44;;;18.90;62.94
46223;BME280;31943;51.410;7.564;2023-08-24T01:15:03;100477.31;;;18.88;63.26
46223;BME280;31943;51.410;7.564;2023-08-24T01:17:30;100481.75;;;18.86;63.22
46223;BME280;31943;51.410;7.564;2023-08-24T01:19:58;100482.69;;;18.82;63.30
46223;BME280;31943;51.410;7.564;2023-08-24T01:22:34;100483.59;;;18.82;63.19
46223;BME280;31943;51.410;7.564;2023-08-24T01:25:12;100483.59;;;18.82;63.10
46223;BME280;31943;51.410;7.564;2023-08-24T01:27:40;100485.34;;;18.82;63.38
46223;BME280;31943;51.410;7.564;2023-08-24T01:30:07;100480.09;;;18.78;63.51
46223;BME280;31943;51.410;7.564;2023-08-24T01:32:34;100486.34;;;18.76;63.11
46223;BME280;31943;51.410;7.564;2023-08-24T01:35:05;100482.84;;;18.74;63.25
46223;BME280;31943;51.410;7.564;2023-08-24T01:37:31;100474.94;;;18.72;63.25
46223;BME280;31943;51.410;7.564;2023-08-24T01:40:04;100470.53;;;18.71;63.61
46223;BME280;31943;51.410;7.564;2023-08-24T01:42:31;100467.06;;;18.69;63.32
46223;BME280;31943;51.410;7.564;2023-08-24T01:45:04;100465.34;;;18.68;63.60
46223;BME280;31943;51.410;7.564;2023-08-24T01:47:31;100467.13;;;18.66;63.69
46223;BME280;31943;51.410;7.564;2023-08-24T01:49:57;100466.31;;;18.64;63.40
46223;BME280;31943;51.410;7.564;2023-08-24T01:52:24;100461.03;;;18.63;63.84
46223;BME280;31943;51.410;7.564;2023-08-24T01:54:50;100467.22;;;18.60;63.77
46223;BME280;31943;51.410;7.564;2023-08-24T01:57:16;100460.22;;;18.59;63.55
46223;BME280;31943;51.410;7.564;2023-08-24T01:59:42;100460.22;;;18.59;63.61
46223;BME280;31943;51.410;7.564;2023-08-24T02:02:09;100457.59;;;18.57;63.71
46223;BME280;31943;51.410;7.564;2023-08-24T02:04:36;100457.59;;;18.57;63.36
46223;BME280;31943;51.410;7.564;2023-08-24T02:07:01;100456.78;;;18.54;63.42
46223;BME280;31943;51.410;7.564;2023-08-24T02:09:27;100459.50;;;18.51;63.79
46223;BME280;31943;51.410;7.564;2023-08-24T02:11:53;100463.06;;;18.48;63.55
46223;BME280;31943;51.410;7.564;2023-08-24T02:14:18;100460.50;;;18.45;63.60
46223;BME280;31943;51.410;7.564;2023-08-24T02:16:44;100458.78;;;18.43;63.54
46223;BME280;31943;51.410;7.564;2023-08-24T02:19:11;100454.41;;;18.40;63.96
46223;BME280;31943;51.410;7.564;2023-08-24T02:21:36;100449.13;;;18.40;63.70
46223;BME280;31943;51.410;7.564;2023-08-24T02:24:03;100431.56;;;18.37;63.89
46223;BME280;31943;51.410;7.564;2023-08-24T02:26:28;100428.94;;;18.37;63.80
46223;BME280;31943;51.410;7.564;2023-08-24T02:28:54;100434.22;;;18.37;63.84
46223;BME280;31943;51.410;7.564;2023-08-24T02:31:20;100432.47;;;18.36;63.91
46223;BME280;31943;51.410;7.564;2023-08-24T02:33:46;100440.44;;;18.35;64.42
46223;BME280;31943;51.410;7.564;2023-08-24T02:36:13;100434.25;;;18.34;64.22
46223;BME280;31943;51.410;7.564;2023-08-24T02:38:39;100441.34;;;18.32;64.11
46223;BME280;31943;51.410;7.564;2023-08-24T02:41:06;100439.63;;;18.30;64.38
46223;BME280;31943;51.410;7.564;2023-08-24T02:43:32;100445.78;;;18.30;64.39
46223;BME280;31943;51.410;7.564;2023-08-24T02:46:02;100444.94;;;18.28;64.41
46223;BME280;31943;51.410;7.564;2023-08-24T02:48:28;100445.88;;;18.26;64.20
46223;BME280;31943;51.410;7.564;2023-08-24T02:50:54;100450.25;;;18.27;64.34
46223;BME280;31943;51.410;7.564;2023-08-24T02:53:20;100452.88;;;18.27;64.19
46223;BME280;31943;51.410;7.564;2023-08-24T02:55:48;100443.25;;;18.24;64.13
46223;BME280;31943;51.410;7.564;2023-08-24T02:58:15;100437.13;;;18.24;64.09
46223;BME280;31943;51.410;7.564;2023-08-24T03:00:40;100425.69;;;18.23;64.09
46223;BME280;31943;51.410;7.564;2023-08-24T03:03:06;100426.56;;;18.22;64.39
46223;BME280;31943;51.410;7.564;2023-08-24T03:05:33;100431.00;;;18.20;64.35
46223;BME280;31943;51.410;7.564;2023-08-24T03:08:00;100438.06;;;18.20;64.38
46223;BME280;31943;51.410;7.564;2023-08-24T03:10:27;100441.66;;;18.17;64.37
46223;BME280;31943;51.410;7.564;2023-08-24T03:12:53;100446.06;;;18.15;64.40
46223;BME280;31943;51.410;7.564;2023-08-24T03:15:19;100450.50;;;18.13;64.58
46223;BME280;31943;51.410;7.564;2023-08-24T03:17:45;100445.22;;;18.13;64.52
46223;BME280;31943;51.410;7.564;2023-08-24T03:20:11;100438.22;;;18.12;64.65
46223;BME280;31943;51.410;7.564;2023-08-24T03:22:36;100443.50;;;18.12;64.60
46223;BME280;31943;51.410;7.564;2023-08-24T03:25:02;100441.72;;;18.11;64.82
46223;BME280;31943;51.410;7.564;2023-08-24T03:27:30;100444.34;;;18.12;64.87
46223;BME280;31943;51.410;7.564;2023-08-24T03:29:56;100439.94;;;18.13;64.75
46223;BME280;31943;51.410;7.564;2023-08-24T03:32:21;100432.94;;;18.12;64.80
46223;BME280;31943;51.410;7.564;2023-08-24T03:34:47;100428.53;;;18.11;64.90
46223;BME280;31943;51.410;7.564;2023-08-24T03:37:13;100433.88;;;18.09;64.94
46223;BME280;31943;51.410;7.564;2023-08-24T03:39:38;100436.44;;;18.11;64.82
46223;BME280;31943;51.410;7.564;2023-08-24T03:42:04;100452.25;;;18.14;65.17
46223;BME280;31943;51.410;7.564;2023-08-24T03:44:31;100435.50;;;18.15;64.91
46223;BME280;31943;51.410;7.564;2023-08-24T03:46:58;100425.81;;;18.15;64.90
46223;BME280;31943;51.410;7.564;2023-08-24T03:49:24;100426.69;;;18.16;65.09
46223;BME280;31943;51.410;7.564;2023-08-24T03:51:49;100426.69;;;18.16;64.97
46223;BME280;31943;51.410;7.564;2023-08-24T03:54:15;100429.28;;;18.19;65.26
46223;BME280;31943;51.410;7.564;2023-08-24T03:56:40;100421.38;;;18.19;65.23
46223;BME280;31943;51.410;7.564;2023-08-24T03:59:06;100420.44;;;18.20;65.25
46223;BME280;31943;51.410;7.564;2023-08-24T04:01:33;100437.13;;;18.22;65.59
46223;BME280;31943;51.410;7.564;2023-08-24T04:03:59;100440.69;;;18.21;65.74
46223;BME280;31943;51.410;7.564;2023-08-24T04:06:24;100443.34;;;18.21;65.73
46223;BME280;31943;51.410;7.564;2023-08-24T04:08:50;100443.28;;;18.23;65.76
46223;BME280;31943;51.410;7.564;2023-08-24T04:11:15;100445.91;;;18.24;65.71
46223;BME280;31943;51.410;7.564;2023-08-24T04:13:41;100450.25;;;18.27;65.60
46223;BME280;31943;51.410;7.564;2023-08-24T04:16:07;100452.88;;;18.28;65.31
46223;BME280;31943;51.410;7.564;2023-08-24T04:18:34;100457.25;;;18.31;65.27
46223;BME280;31943;51.410;7.564;2023-08-24T04:20:59;100460.75;;;18.31;65.50
46223;BME280;31943;51.410;7.564;2023-08-24T04:23:26;100463.41;;;18.31;65.72
46223;BME280;31943;51.410;7.564;2023-08-24T04:25:52;100466.88;;;18.33;65.82
46223;BME280;31943;51.410;7.564;2023-08-24T04:28:18;100468.59;;;18.34;65.76
46223;BME280;31943;51.410;7.564;2023-08-24T04:30:49;100460.63;;;18.37;65.99
46223;BME280;31943;51.410;7.564;2023-08-24T04:33:15;100437.72;;;18.38;66.15
46223;BME280;31943;51.410;7.564;2023-08-24T04:35:42;100424.47;;;18.41;66.21
46223;BME280;31943;51.410;7.564;2023-08-24T04:38:07;100432.38;;;18.43;66.04
46223;BME280;31943;51.410;7.564;2023-08-24T04:40:46;100430.47;;;18.48;66.02
46223;BME280;31943;51.410;7.564;2023-08-24T04:43:12;100425.19;;;18.48;65.98
46223;BME280;31943;51.410;7.564;2023-08-24T04:45:37;100426.13;;;18.47;66.10
46223;BME280;31943;51.410;7.564;2023-08-24T04:48:03;100424.38;;;18.44;66.26
46223;BME280;31943;51.410;7.564;2023-08-24T04:50:29;100423.53;;;18.44;66.35
46223;BME280;31943;51.410;7.564;2023-08-24T04:52:56;100420.00;;;18.43;66.53
46223;BME280;31943;51.410;7.564;2023-08-24T04:55:23;100428.81;;;18.44;66.33
46223;BME280;31943;51.410;7.564;2023-08-24T04:57:49;100423.53;;;18.42;66.33
46223;BME280;31943;51.410;7.564;2023-08-24T05:00:15;100420.06;;;18.40;66.38
46223;BME280;31943;51.410;7.564;2023-08-24T05:02:41;100427.16;;;18.38;66.17
46223;BME280;31943;51.410;7.564;2023-08-24T05:05:08;100419.25;;;18.36;66.52
46223;BME280;31943;51.410;7.564;2023-08-24T05:07:34;100427.28;;;18.30;66.63
46223;BME280;31943;51.410;7.564;2023-08-24T05:10:01;100437.09;;;18.25;66.63
46223;BME280;31943;51.410;7.564;2023-08-24T05:12:27;100433.63;;;18.22;67.18
46223;BME280;31943;51.410;7.564;2023-08-24T05:14:53;100431.84;;;18.24;67.17
46223;BME280;31943;51.410;7.564;2023-08-24T05:17:19;100436.19;;;18.26;67.23
46223;BME280;31943;51.410;7.564;2023-08-24T05:19:44;100436.13;;;18.29;67.74
46223;BME280;31943;51.410;7.564;2023-08-24T05:22:10;100425.53;;;18.31;67.99
46223;BME280;31943;51.410;7.564;2023-08-24T05:24:35;100403.38;;;18.36;68.00
46223;BME280;31943;51.410;7.564;2023-08-24T05:27:03;100386.56;;;18.42;68.07
46223;BME280;31943;51.410;7.564;2023-08-24T05:29:28;100372.47;;;18.43;67.74
46223;BME280;31943;51.410;7.564;2023-08-24T05:31:54;100375.13;;;18.42;68.23
46223;BME280;31943;51.410;7.564;2023-08-24T05:34:19;100376.78;;;18.47;68.19
46223;BME280;31943;51.410;7.564;2023-08-24T05:36:45;100389.06;;;18.48;68.42
46223;BME280;31943;51.410;7.564;2023-08-24T05:39:11;100396.28;;;18.40;68.59
46223;BME280;31943;51.410;7.564;2023-08-24T05:41:36;100402.75;;;18.25;69.17
46223;BME280;31943;51.410;7.564;2023-08-24T05:44:04;100392.41;;;18.13;69.33
46223;BME280;31943;51.410;7.564;2023-08-24T05:46:29;100390.72;;;18.09;69.52
46223;BME280;31943;51.410;7.564;2023-08-24T05:48:55;100379.28;;;18.10;69.96
46223;BME280;31943;51.410;7.564;2023-08-24T05:51:21;100370.28;;;18.18;70.02
46223;BME280;31943;51.410;7.564;2023-08-24T05:53:46;100363.19;;;18.22;70.14
46223;BME280;31943;51.410;7.564;2023-08-24T05:56:12;100360.44;;;18.27;70.28
46223;BME280;31943;51.410;7.564;2023-08-24T05:58:38;100361.22;;;18.32;70.04
46223;BME280;31943;51.410;7.564;2023-08-24T06:01:05;100350.63;;;18.35;70.12
46223;BME280;31943;51.410;7.564;2023-08-24T06:03:30;100341.63;;;18.42;70.22
46223;BME280;31943;51.410;7.564;2023-08-24T06:06:01;100346.78;;;18.48;70.03
46223;BME280;31943;51.410;7.564;2023-08-24T06:08:26;100334.38;;;18.53;69.97
46223;BME280;31943;51.410;7.564;2023-08-24T06:10:52;100313.09;;;18.58;69.78
46223;BME280;31943;51.410;7.564;2023-08-24T06:13:18;100304.19;;;18.64;69.45
46223;BME280;31943;51.410;7.564;2023-08-24T06:15:44;100296.19;;;18.67;69.73
46223;BME280;31943;51.410;7.564;2023-08-24T06:18:11;100297.88;;;18.69;69.80
46223;BME280;31943;51.410;7.564;2023-08-24T06:20:36;100301.44;;;18.68;69.83
46223;BME280;31943;51.410;7.564;2023-08-24T06:23:02;100289.03;;;18.72;70.01
46223;BME280;31943;51.410;7.564;2023-08-24T06:25:28;100278.34;;;18.76;70.04
46223;BME280;31943;51.410;7.564;2023-08-24T06:27:54;100271.19;;;18.82;69.85
46223;BME280;31943;51.410;7.564;2023-08-24T06:30:19;100262.22;;;18.89;69.83
46223;BME280;31943;51.410;7.564;2023-08-24T06:32:45;100251.50;;;18.95;69.60
46223;BME280;31943;51.410;7.564;2023-08-24T06:35:13;100253.91;;;19.04;69.12
46223;BME280;31943;51.410;7.564;2023-08-24T06:37:39;100246.63;;;19.14;68.88
46223;BME280;31943;51.410;7.564;2023-08-24T06:40:05;100241.03;;;19.25;68.83
46223;BME280;31943;51.410;7.564;2023-08-24T06:42:31;100243.47;;;19.34;69.02
46223;BME280;31943;51.410;7.564;2023-08-24T06:44:57;100251.34;;;19.37;68.78
46223;BME280;31943;51.410;7.564;2023-08-24T06:47:24;100254.72;;;19.42;68.03
46223;BME280;31943;51.410;7.564;2023-08-24T06:49:50;100256.22;;;19.52;67.54
46223;BME280;31943;51.410;7.564;2023-08-24T06:52:17;100244.50;;;19.61;67.52
46223;BME280;31943;51.410;7.564;2023-08-24T06:54:44;100234.59;;;19.68;67.88
46223;BME280;31943;51.410;7.564;2023-08-24T06:57:09;100238.97;;;19.72;67.83
46223;BME280;31943;51.410;7.564;2023-08-24T06:59:35;100236.97;;;19.80;68.01
46223;BME280;31943;51.410;7.564;2023-08-24T07:02:01;100243.81;;;19.87;68.23
46223;BME280;31943;51.410;7.564;2023-08-24T07:04:26;100234.78;;;19.94;68.32
46223;BME280;31943;51.410;7.564;2023-08-24T07:06:52;100236.56;;;19.94;68.10
46223;BME280;31943;51.410;7.564;2023-08-24T07:09:20;100246.34;;;19.92;68.09
46223;BME280;31943;51.410;7.564;2023-08-24T07:11:46;100248.09;;;19.91;68.55
46223;BME280;31943;51.410;7.564;2023-08-24T07:14:12;100241.97;;;19.89;68.24
46223;BME280;31943;51.410;7.564;2023-08-24T07:16:37;100243.75;;;19.89;68.36
46223;BME280;31943;51.410;7.564;2023-08-24T07:19:03;100235.94;;;19.86;68.44
46223;BME280;31943;51.410;7.564;2023-08-24T07:21:29;100232.31;;;19.88;68.74
46223;BME280;31943;51.410;7.564;2023-08-24T07:23:55;100228.41;;;20.02;68.52
46223;BME280;31943;51.410;7.564;2023-08-24T07:26:23;100237.81;;;20.12;68.63
46223;BME280;31943;51.410;7.564;2023-08-24T07:28:48;100241.88;;;20.24;68.19
46223;BME280;31943;51.410;7.564;2023-08-24T07:31:14;100243.28;;;20.35;67.84
46223;BME280;31943;51.410;7.564;2023-08-24T07:33:40;100247.31;;;20.49;67.60
46223;BME280;31943;51.410;7.564;2023-08-24T07:36:06;100251.28;;;20.64;66.78
46223;BME280;31943;51.410;7.564;2023-08-24T07:38:32;100245.28;;;20.85;66.89
46223;BME280;31943;51.410;7.564;2023-08-24T07:40:58;100253.47;;;21.06;65.42
46223;BME280;31943;51.410;7.564;2023-08-24T07:43:25;100257.25;;;21.25;65.17
46223;BME280;31943;51.410;7.564;2023-08-24T07:45:50;100249.63;;;21.41;63.44
46223;BME280;31943;51.410;7.564;2023-08-24T07:48:16;100248.09;;;21.61;63.59
46223;BME280;31943;51.410;7.564;2023-08-24T07:50:42;100253.66;;;21.78;62.42
46223;BME280;31943;51.410;7.564;2023-08-24T07:53:08;100245.13;;;21.94;62.13
46223;BME280;31943;51.410;7.564;2023-08-24T07:55:33;100239.34;;;22.06;61.27
46223;BME280;31943;51.410;7.564;2023-08-24T07:57:59;100240.72;;;22.16;60.44
46223;BME280;31943;51.410;7.564;2023-08-24T08:00:26;100239.38;;;22.29;60.00
46223;BME280;31943;51.410;7.564;2023-08-24T08:02:53;100251.03;;;22.49;60.03
46223;BME280;31943;51.410;7.564;2023-08-24T08:05:19;100237.91;;;22.66;60.03
46223;BME280;31943;51.410;7.564;2023-08-24T08:07:45;100235.56;;;22.81;59.89
46223;BME280;31943;51.410;7.564;2023-08-24T08:10:13;100233.28;;;22.94;58.73
46223;BME280;31943;51.410;7.564;2023-08-24T08:12:38;100232.03;;;23.02;57.41
46223;BME280;31943;51.410;7.564;2023-08-24T08:15:04;100230.97;;;23.06;57.72
46223;BME280;31943;51.410;7.564;2023-08-24T08:17:32;100229.41;;;23.23;57.76
46223;BME280;31943;51.410;7.564;2023-08-24T08:19:58;100232.00;;;23.45;57.62
46223;BME280;31943;51.410;7.564;2023-08-24T08:22:24;100232.88;;;23.66;57.06
46223;BME280;31943;51.410;7.564;2023-08-24T08:24:49;100226.97;;;23.80;55.27
46223;BME280;31943;51.410;7.564;2023-08-24T08:27:16;100221.06;;;23.92;55.17
46223;BME280;31943;51.410;7.564;2023-08-24T08:29:42;100225.69;;;24.07;55.51
46223;BME280;31943;51.410;7.564;2023-08-24T08:32:08;100227.53;;;24.24;55.38
46223;BME280;31943;51.410;7.564;2023-08-24T08:34:36;100235.63;;;24.42;55.06
46223;BME280;31943;51.410;7.564;2023-08-24T08:37:02;100238.53;;;24.56;54.97
46223;BME280;31943;51.410;7.564;2023-08-24T08:39:28;100235.28;;;24.69;54.35
46223;BME280;31943;51.410;7.564;2023-08-24T08:41:54;100240.31;;;24.75;53.74
46223;BME280;31943;51.410;7.564;2023-08-24T08:44:21;100230.03;;;24.84;53.74
46223;BME280;31943;51.410;7.564;2023-08-24T08:46:49;100220.69;;;24.93;54.12
46223;BME280;31943;51.410;7.564;2023-08-24T08:49:16;100205.72;;;24.91;53.56
46223;BME280;31943;51.410;7.564;2023-08-24T08:51:45;100206.28;;;24.97;53.62
46223;BME280;31943;51.410;7.564;2023-08-24T08:54:11;100197.84;;;25.05;53.61
46223;BME280;31943;51.410;7.564;2023-08-24T08:56:38;100194.59;;;25.17;53.96
46223;BME280;31943;51.410;7.564;2023-08-24T08:59:06;100196.00;;;25.24;53.92
46223;BME280;31943;51.410;7.564;2023-08-24T09:01:33;100196.25;;;25.37;53.52
46223;BME280;31943;51.410;7.564;2023-08-24T09:03:59;100197.56;;;25.46;53.77
46223;BME280;31943;51.410;7.564;2023-08-24T09:06:25;100188.91;;;25.58;53.20
46223;BME280;31943;51.410;7.564;2023-08-24T09:08:54;100190.91;;;25.71;53.02
46223;BME280;31943;51.410;7.564;2023-08-24T09:11:20;100179.88;;;25.77;53.14
46223;BME280;31943;51.410;7.564;2023-08-24T09:13:46;100183.19;;;25.82;53.64
46223;BME280;31943;51.410;7.564;2023-08-24T09:16:13;100181.88;;;25.89;53.17
46223;BME280;31943;51.410;7.564;2023-08-24T09:18:41;100168.78;;;25.84;53.18
46223;BME280;31943;51.410;7.564;2023-08-24T09:21:11;100166.19;;;25.83;53.45
46223;BME280;31943;51.410;7.564;2023-08-24T09:23:38;100172.31;;;25.85;53.38
46223;BME280;31943;51.410;7.564;2023-08-24T09:26:09;100175.59;;;25.90;53.12
46223;BME280;31943;51.410;7.564;2023-08-24T09:28:35;100167.19;;;25.98;53.01
46223;BME280;31943;51.410;7.564;2023-08-24T09:31:01;100157.56;;;26.11;52.82
46223;BME280;31943;51.410;7.564;2023-08-24T09:33:26;100146.16;;;26.23;52.90
46223;BME280;31943;51.410;7.564;2023-08-24T09:35:53;100136.72;;;26.32;51.90
46223;BME280;31943;51.410;7.564;2023-08-24T09:38:20;100129.81;;;26.44;51.57
46223;BME280;31943;51.410;7.564;2023-08-24T09:40:47;100119.34;;;26.55;51.41
46223;BME280;31943;51.410;7.564;2023-08-24T09:43:17;100111.22;;;26.73;51.43
46223;BME280;31943;51.410;7.564;2023-08-24T09:45:50;100100.91;;;26.81;50.33
46223;BME280;31943;51.410;7.564;2023-08-24T09:48:16;100091.47;;;26.90;50.72
46223;BME280;31943;51.410;7.564;2023-08-24T09:50:42;100086.59;;;26.96;50.65
46223;BME280;31943;51.410;7.564;2023-08-24T09:53:09;100092.44;;;27.03;50.07
46223;BME280;31943;51.410;7.564;2023-08-24T09:55:40;100091.03;;;27.12;50.37
46223;BME280;31943;51.410;7.564;2023-08-24T09:58:10;100077.53;;;27.13;50.33
46223;BME280;31943;51.410;7.564;2023-08-24T10:00:38;100084.34;;;27.19;49.97
46223;BME280;31943;51.410;7.564;2023-08-24T10:03:04;100075.25;;;27.21;48.96
46223;BME280;31943;51.410;7.564;2023-08-24T10:05:32;100080.59;;;27.21;48.96
46223;BME280;31943;51.410;7.564;2023-08-24T10:07:58;100078.03;;;27.20;49.00
46223;BME280;31943;51.410;7.564;2023-08-24T10:10:25;100072.75;;;27.18;49.62
46223;BME280;31943;51.410;7.564;2023-08-24T10:12:56;100076.91;;;27.24;50.40
46223;BME280;31943;51.410;7.564;2023-08-24T10:15:26;100094.69;;;27.39;50.17
46223;BME280;31943;51.410;7.564;2023-08-24T10:17:54;100086.56;;;27.55;48.35
46223;BME280;31943;51.410;7.564;2023-08-24T10:20:20;100091.72;;;27.73;48.29
46223;BME280;31943;51.410;7.564;2023-08-24T10:22:47;100100.41;;;27.91;48.50
46223;BME280;31943;51.410;7.564;2023-08-24T10:25:13;100117.25;;;28.07;48.65
46223;BME280;31943;51.410;7.564;2023-08-24T10:27:41;100118.28;;;28.19;47.29
46223;BME280;31943;51.410;7.564;2023-08-24T10:30:09;100116.78;;;28.28;46.68
46223;BME280;31943;51.410;7.564;2023-08-24T10:32:37;100124.53;;;28.32;46.95
46223;BME280;31943;51.410;7.564;2023-08-24T10:35:05;100121.75;;;28.34;44.94
46223;BME280;31943;51.410;7.564;2023-08-24T10:37:31;100129.03;;;28.32;46.89
46223;BME280;31943;51.410;7.564;2023-08-24T10:39:57;100129.25;;;28.29;47.28
46223;BME280;31943;51.410;7.564;2023-08-24T10:42:23;100118.53;;;28.29;46.57
46223;BME280;31943;51.410;7.564;2023-08-24T10:44:49;100112.19;;;28.30;46.80
46223;BME280;31943;51.410;7.564;2023-08-24T10:47:15;100110.75;;;28.24;46.43
46223;BME280;31943;51.410;7.564;2023-08-24T10:49:44;100108.75;;;28.28;46.62
46223;BME280;31943;51.410;7.564;2023-08-24T10:52:19;100103.19;;;28.31;47.19
46223;BME280;31943;51.410;7.564;2023-08-24T10:54:45;100102.22;;;28.32;45.75
46223;BME280;31943;51.410;7.564;2023-08-24T10:57:18;100096.75;;;28.33;45.05
46223;BME280;31943;51.410;7.564;2023-08-24T10:59:45;100092.22;;;28.34;46.79
46223;BME280;31943;51.410;7.564;2023-08-24T11:02:19;100095.47;;;28.39;47.16
46223;BME280;31943;51.410;7.564;2023-08-24T11:05:06;100102.03;;;28.48;45.41
46223;BME280;31943;51.410;7.564;2023-08-24T11:07:47;100100.06;;;28.51;46.88
46223;BME280;31943;51.410;7.564;2023-08-24T11:10:15;100094.34;;;28.56;46.60
46223;BME280;31943;51.410;7.564;2023-08-24T11:13:12;100092.34;;;28.59;46.99
46223;BME280;31943;51.410;7.564;2023-08-24T11:15:41;100084.66;;;28.68;45.28
46223;BME280;31943;51.410;7.564;2023-08-24T11:18:22;100089.47;;;28.75;44.18
46223;BME280;31943;51.410;7.564;2023-08-24T11:20:49;100088.50;;;28.76;46.05
46223;BME280;31943;51.410;7.564;2023-08-24T11:23:17;100088.94;;;28.83;44.57
46223;BME280;31943;51.410;7.564;2023-08-24T11:25:44;100091.97;;;28.91;45.05
46223;BME280;31943;51.410;7.564;2023-08-24T11:28:10;100086.38;;;28.94;44.58
46223;BME280;31943;51.410;7.564;2023-08-24T11:30:35;100096.69;;;29.01;44.67
46223;BME280;31943;51.410;7.564;2023-08-24T11:33:03;100091.13;;;29.04;45.00
46223;BME280;31943;51.410;7.564;2023-08-24T11:35:29;100086.50;;;29.06;43.85
46223;BME280;31943;51.410;7.564;2023-08-24T11:37:55;100079.81;;;28.98;44.48
46223;BME280;31943;51.410;7.564;2023-08-24T11:40:23;100070.06;;;28.97;45.57
46223;BME280;31943;51.410;7.564;2023-08-24T11:42:53;100055.44;;;29.02;44.39
46223;BME280;31943;51.410;7.564;2023-08-24T11:45:20;100045.00;;;29.10;44.00
46223;BME280;31943;51.410;7.564;2023-08-24T11:47:46;100040.84;;;29.18;45.68
46223;BME280;31943;51.410;7.564;2023-08-24T11:50:12;100044.16;;;29.22;44.26
46223;BME280;31943;51.410;7.564;2023-08-24T11:52:39;100048.25;;;29.28;46.05
46223;BME280;31943;51.410;7.564;2023-08-24T11:55:05;100046.53;;;29.27;44.09
46223;BME280;31943;51.410;7.564;2023-08-24T11:57:35;100041.91;;;29.16;44.52
46223;BME280;31943;51.410;7.564;2023-08-24T12:00:04;100039.75;;;29.08;44.71
46223;BME280;31943;51.410;7.564;2023-08-24T12:02:31;100036.09;;;28.96;44.69
46223;BME280;31943;51.410;7.564;2023-08-24T12:04:57;100035.03;;;28.86;45.49
46223;BME280;31943;51.410;7.564;2023-08-24T12:07:23;100034.28;;;28.84;44.97
46223;BME280;31943;51.410;7.564;2023-08-24T12:09:50;100039.53;;;28.86;45.39
46223;BME280;31943;51.410;7.564;2023-08-24T12:12:18;100035.97;;;28.85;44.40
46223;BME280;31943;51.410;7.564;2023-08-24T12:14:46;100042.97;;;28.88;45.56
46223;BME280;31943;51.410;7.564;2023-08-24T12:17:13;100037.59;;;29.01;46.30
46223;BME280;31943;51.410;7.564;2023-08-24T12:19:41;100040.50;;;29.10;46.12
46223;BME280;31943;51.410;7.564;2023-08-24T12:22:07;100047.84;;;29.21;45.51
46223;BME280;31943;51.410;7.564;2023-08-24T12:24:35;100052.03;;;29.25;44.30
46223;BME280;31943;51.410;7.564;2023-08-24T12:27:01;100052.88;;;29.26;44.45
46223;BME280;31943;51.410;7.564;2023-08-24T12:29:27;100045.81;;;29.25;44.81
46223;BME280;31943;51.410;7.564;2023-08-24T12:31:57;100045.56;;;29.28;45.12
46223;BME280;31943;51.410;7.564;2023-08-24T12:34:24;100049.09;;;29.28;44.67
46223;BME280;31943;51.410;7.564;2023-08-24T12:36:52;100040.63;;;29.34;44.57
46223;BME280;31943;51.410;7.564;2023-08-24T12:39:18;100033.53;;;29.33;44.79
46223;BME280;31943;51.410;7.564;2023-08-24T12:41:43;100029.09;;;29.32;44.87
46223;BME280;31943;51.410;7.564;2023-08-24T12:44:09;100034.47;;;29.32;44.93
46223;BME280;31943;51.410;7.564;2023-08-24T12:46:35;100031.78;;;29.32;45.00
46223;BME280;31943;51.410;7.564;2023-08-24T12:49:02;100020.91;;;29.47;45.54